ULAAULMM

Guest
Details From ULAA - Talagi
To ULMM - Murmansk
Flight Number -
Tags Real
Created
Modified
Stats Distance 288 nm / 533 km
Max Altitude 0 ft / 0 m
Waypoints 3
Social Downloads 16
Likes 0
Share VATSIM

Download

Looking for another format? Having issues loading an existing format? Contact us
Advertisement - Login to hide

Notes

None

Route

RILDA PILAN PELOR

ID Type Via Altitude Latitude Longitude Leg Dist Tot Dist Heading (true) Name
O RILDA FIX - 0 ft / 0 m 65.47500˚ 40.25167˚ - 0 nm - -
PILAN FIX - 0 ft / 0 m 67.45500˚ 32.78667˚ 214 nm 214 nm 307° / 300° -
O PELOR FIX - 0 ft / 0 m 68.61667˚ 31.78333˚ 73 nm 288 nm 343° / 342° -

Altitude Profile

Advertisement - Login to hide

Weather


0- 5 10 15 20 25 30 35+ Temperature / ° C

Clouds and Precipitation
Forecast for 2018-05-28 00:00 UTC. Updated 9 hours ago

Ground ~20,000 ft ~40,000 ft Winds

ULAA

Details ICAO ULAA (ARH)
Name TALAGI
Region Russia
Timezone Europe/Moscow (UTC+3.0)
Stats Elevation 62 ft / 19 m (AMSL)
Location 64.600275° 40.716665°
Runways 1
Magnetic Variation 16.997° E

METAR

Not found

TAF

TAF TAF ULAA 280200Z 2803/2903 33004MPS 9999 SCT020 TEMPO 2803/2815 28003G09MPS SCT011 TEMPO 2815/2821 19005MPS -RA SCT011

Decode

Departure Runways

ID Width Length Bearing (true) Bearing (mag) Surface Threshold Offset Overrun Length
08 144 ft / 44 m 8,173 ft / 2,491 m 96.59° 79.59° Concrete 0 ft / 0 m 164 ft / 50 m
26 144 ft / 44 m 8,173 ft / 2,491 m 276.63° 259.63° Concrete 0 ft / 0 m 164 ft / 50 m

ULMM

Details ICAO ULMM (MMK)
Name Murmansk
Region Russia
Timezone Europe/Moscow (UTC+3.0)
Stats Elevation 266 ft / 81 m (AMSL)
Location 68.781671° 32.750821°
Runways 1
Magnetic Variation 16.038° E

METAR

Not found

TAF

TAF TAF ULMM 280155Z 2803/2903 28003G08MPS 9999 BKN011 TEMPO 2803/2806 22002MPS 3100 -SHRA BR BKN011CB TEMPO 2806/2818 31005G10MPS 5000 -SHRA BKN011CB TEMPO 2818/2903 31003G08MPS 3100 -SHRA BKN011CB

Decode

Destination Runways

ID Width Length Bearing (true) Bearing (mag) Surface Threshold Offset Overrun Length
14 148 ft / 45 m 8,172 ft / 2,491 m 146.23° 130.19° Concrete 0 ft / 0 m 160 ft / 49 m
32 148 ft / 45 m 8,172 ft / 2,491 m 326.26° 310.22° Concrete 0 ft / 0 m 160 ft / 49 m

Approach Navaids

Runway Type Ident Frequency Range Bearing (true) Bearing (mag) Slope Elevation
14 Localiser IPF 110.30 MHz 18 nm / 33 km 146.45° 130.42° - 276 ft / 84 m (AMSL)
14 Glidescope IPF 110.30 MHz 10 nm / 19 km 146.00° 129.96° 3.00° 266 ft / 81 m (AMSL)
32 Localiser IRD 108.50 MHz 18 nm / 33 km 326.45° 310.42° - 110 ft / 34 m (AMSL)
32 Glidescope IRD 108.50 MHz 10 nm / 19 km 326.00° 309.96° 3.00° 266 ft / 81 m (AMSL)

Popular Alternatives